sensor_id;sensor_type;location;lat;lon;timestamp;temperature;humidity
14172;DHT22;7165;52.388;4.928;2023-04-25T00:02:15;7.00;99.90
14172;DHT22;7165;52.388;4.928;2023-04-25T00:04:41;7.00;99.90
14172;DHT22;7165;52.388;4.928;2023-04-25T00:07:08;7.00;99.90
14172;DHT22;7165;52.388;4.928;2023-04-25T00:09:35;7.00;99.90
14172;DHT22;7165;52.388;4.928;2023-04-25T00:12:03;7.00;99.90
14172;DHT22;7165;52.388;4.928;2023-04-25T00:14:30;7.00;99.90
14172;DHT22;7165;52.388;4.928;2023-04-25T00:16:59;7.00;99.90
14172;DHT22;7165;52.388;4.928;2023-04-25T00:19:25;7.00;99.90
14172;DHT22;7165;52.388;4.928;2023-04-25T00:21:53;7.00;99.90
14172;DHT22;7165;52.388;4.928;2023-04-25T00:24:20;7.00;99.90
14172;DHT22;7165;52.388;4.928;2023-04-25T00:26:46;6.90;99.90
14172;DHT22;7165;52.388;4.928;2023-04-25T00:29:14;6.90;99.90
14172;DHT22;7165;52.388;4.928;2023-04-25T00:31:41;6.90;99.90
14172;DHT22;7165;52.388;4.928;2023-04-25T00:34:07;6.90;99.90
14172;DHT22;7165;52.388;4.928;2023-04-25T00:36:34;6.90;99.90
14172;DHT22;7165;52.388;4.928;2023-04-25T00:39:01;6.90;99.90
14172;DHT22;7165;52.388;4.928;2023-04-25T00:41:29;6.90;99.90
14172;DHT22;7165;52.388;4.928;2023-04-25T00:43:56;6.80;99.90
14172;DHT22;7165;52.388;4.928;2023-04-25T00:46:24;6.90;99.90
14172;DHT22;7165;52.388;4.928;2023-04-25T00:48:51;6.80;99.90
14172;DHT22;7165;52.388;4.928;2023-04-25T00:51:19;6.80;99.90
14172;DHT22;7165;52.388;4.928;2023-04-25T00:53:45;6.80;99.90
14172;DHT22;7165;52.388;4.928;2023-04-25T00:56:13;6.70;99.90
14172;DHT22;7165;52.388;4.928;2023-04-25T00:58:40;6.70;99.90
14172;DHT22;7165;52.388;4.928;2023-04-25T01:01:07;6.70;99.90
14172;DHT22;7165;52.388;4.928;2023-04-25T01:03:36;6.60;99.90
14172;DHT22;7165;52.388;4.928;2023-04-25T01:06:06;6.50;99.90
14172;DHT22;7165;52.388;4.928;2023-04-25T01:08:33;6.40;99.90
14172;DHT22;7165;52.388;4.928;2023-04-25T01:11:00;6.40;99.90
14172;DHT22;7165;52.388;4.928;2023-04-25T01:13:26;6.30;99.90
14172;DHT22;7165;52.388;4.928;2023-04-25T01:15:53;6.30;99.90
14172;DHT22;7165;52.388;4.928;2023-04-25T01:18:19;6.20;99.90
14172;DHT22;7165;52.388;4.928;2023-04-25T01:20:51;6.20;99.90
14172;DHT22;7165;52.388;4.928;2023-04-25T01:23:20;6.20;99.90
14172;DHT22;7165;52.388;4.928;2023-04-25T01:25:48;6.30;99.90
14172;DHT22;7165;52.388;4.928;2023-04-25T01:28:15;6.30;99.90
14172;DHT22;7165;52.388;4.928;2023-04-25T01:30:43;6.30;99.90
14172;DHT22;7165;52.388;4.928;2023-04-25T01:33:09;6.30;99.90
14172;DHT22;7165;52.388;4.928;2023-04-25T01:35:36;6.30;99.90
14172;DHT22;7165;52.388;4.928;2023-04-25T01:38:03;6.30;99.90
14172;DHT22;7165;52.388;4.928;2023-04-25T01:40:31;6.30;99.90
14172;DHT22;7165;52.388;4.928;2023-04-25T01:42:59;6.30;99.90
14172;DHT22;7165;52.388;4.928;2023-04-25T01:45:26;6.20;99.90
14172;DHT22;7165;52.388;4.928;2023-04-25T01:47:53;6.30;99.90
14172;DHT22;7165;52.388;4.928;2023-04-25T01:50:19;6.30;99.90
14172;DHT22;7165;52.388;4.928;2023-04-25T01:52:46;6.30;99.90
14172;DHT22;7165;52.388;4.928;2023-04-25T01:55:13;6.30;99.90
14172;DHT22;7165;52.388;4.928;2023-04-25T01:57:41;6.30;99.90
14172;DHT22;7165;52.388;4.928;2023-04-25T02:00:09;6.30;99.90
14172;DHT22;7165;52.388;4.928;2023-04-25T02:02:36;6.30;99.90
14172;DHT22;7165;52.388;4.928;2023-04-25T02:05:03;6.30;99.90
14172;DHT22;7165;52.388;4.928;2023-04-25T02:07:30;6.30;99.90
14172;DHT22;7165;52.388;4.928;2023-04-25T02:09:56;6.30;99.90
14172;DHT22;7165;52.388;4.928;2023-04-25T02:12:23;6.30;99.90
14172;DHT22;7165;52.388;4.928;2023-04-25T02:14:53;6.30;99.90
14172;DHT22;7165;52.388;4.928;2023-04-25T02:17:19;6.40;99.90
14172;DHT22;7165;52.388;4.928;2023-04-25T02:19:46;6.40;99.90
14172;DHT22;7165;52.388;4.928;2023-04-25T02:22:13;6.40;99.90
14172;DHT22;7165;52.388;4.928;2023-04-25T02:24:40;6.40;99.90
14172;DHT22;7165;52.388;4.928;2023-04-25T02:27:07;6.30;99.90
14172;DHT22;7165;52.388;4.928;2023-04-25T02:29:33;6.40;99.90
14172;DHT22;7165;52.388;4.928;2023-04-25T02:32:02;6.40;99.90
14172;DHT22;7165;52.388;4.928;2023-04-25T02:34:28;6.40;99.90
14172;DHT22;7165;52.388;4.928;2023-04-25T02:36:55;6.40;99.90
14172;DHT22;7165;52.388;4.928;2023-04-25T02:39:21;6.50;99.90
14172;DHT22;7165;52.388;4.928;2023-04-25T02:41:50;6.50;99.90
14172;DHT22;7165;52.388;4.928;2023-04-25T02:44:16;6.50;99.90
14172;DHT22;7165;52.388;4.928;2023-04-25T02:46:43;6.50;99.90
14172;DHT22;7165;52.388;4.928;2023-04-25T02:49:11;6.50;99.90
14172;DHT22;7165;52.388;4.928;2023-04-25T02:51:37;6.50;99.90
14172;DHT22;7165;52.388;4.928;2023-04-25T02:54:04;6.50;99.90
14172;DHT22;7165;52.388;4.928;2023-04-25T02:56:31;6.50;99.90
14172;DHT22;7165;52.388;4.928;2023-04-25T02:58:58;6.50;99.90
14172;DHT22;7165;52.388;4.928;2023-04-25T03:01:25;6.50;99.90
14172;DHT22;7165;52.388;4.928;2023-04-25T03:03:51;6.50;99.90
14172;DHT22;7165;52.388;4.928;2023-04-25T03:06:19;6.50;99.90
14172;DHT22;7165;52.388;4.928;2023-04-25T03:08:45;6.50;99.90
14172;DHT22;7165;52.388;4.928;2023-04-25T03:11:12;6.40;99.90
14172;DHT22;7165;52.388;4.928;2023-04-25T03:13:38;6.50;99.90
14172;DHT22;7165;52.388;4.928;2023-04-25T03:16:05;6.40;99.90
14172;DHT22;7165;52.388;4.928;2023-04-25T03:18:32;6.40;99.90
14172;DHT22;7165;52.388;4.928;2023-04-25T03:20:58;6.50;99.90
14172;DHT22;7165;52.388;4.928;2023-04-25T03:23:26;6.50;99.90
14172;DHT22;7165;52.388;4.928;2023-04-25T03:25:53;6.50;99.90
14172;DHT22;7165;52.388;4.928;2023-04-25T03:28:19;6.50;99.90
14172;DHT22;7165;52.388;4.928;2023-04-25T03:30:46;6.40;99.90
14172;DHT22;7165;52.388;4.928;2023-04-25T03:33:12;6.30;99.90
14172;DHT22;7165;52.388;4.928;2023-04-25T03:35:39;6.30;99.90
14172;DHT22;7165;52.388;4.928;2023-04-25T03:38:06;6.20;99.90
14172;DHT22;7165;52.388;4.928;2023-04-25T03:40:34;6.10;99.90
14172;DHT22;7165;52.388;4.928;2023-04-25T03:43:00;6.10;99.90
14172;DHT22;7165;52.388;4.928;2023-04-25T03:45:27;6.10;99.90
14172;DHT22;7165;52.388;4.928;2023-04-25T03:47:53;6.00;99.90
14172;DHT22;7165;52.388;4.928;2023-04-25T03:50:20;5.90;99.90
14172;DHT22;7165;52.388;4.928;2023-04-25T03:52:46;6.00;99.90
14172;DHT22;7165;52.388;4.928;2023-04-25T03:55:13;6.00;99.90
14172;DHT22;7165;52.388;4.928;2023-04-25T03:57:41;5.90;99.90
14172;DHT22;7165;52.388;4.928;2023-04-25T04:00:07;5.90;99.90
14172;DHT22;7165;52.388;4.928;2023-04-25T04:02:35;5.90;99.90
14172;DHT22;7165;52.388;4.928;2023-04-25T04:05:03;5.80;99.90
14172;DHT22;7165;52.388;4.928;2023-04-25T04:07:29;5.80;99.90
14172;DHT22;7165;52.388;4.928;2023-04-25T04:09:58;5.90;99.90
14172;DHT22;7165;52.388;4.928;2023-04-25T04:12:24;5.90;99.90
14172;DHT22;7165;52.388;4.928;2023-04-25T04:14:52;5.90;99.90
14172;DHT22;7165;52.388;4.928;2023-04-25T04:17:19;5.90;99.90
14172;DHT22;7165;52.388;4.928;2023-04-25T04:19:45;6.00;99.90
14172;DHT22;7165;52.388;4.928;2023-04-25T04:22:12;6.00;99.90
14172;DHT22;7165;52.388;4.928;2023-04-25T04:24:38;6.00;99.90
14172;DHT22;7165;52.388;4.928;2023-04-25T04:27:05;6.00;99.90
14172;DHT22;7165;52.388;4.928;2023-04-25T04:29:32;6.00;99.90
14172;DHT22;7165;52.388;4.928;2023-04-25T04:32:00;6.00;99.90
14172;DHT22;7165;52.388;4.928;2023-04-25T04:34:27;6.00;99.90
14172;DHT22;7165;52.388;4.928;2023-04-25T04:36:54;6.00;99.90
14172;DHT22;7165;52.388;4.928;2023-04-25T04:39:21;6.00;99.90
14172;DHT22;7165;52.388;4.928;2023-04-25T04:41:47;6.00;99.90
14172;DHT22;7165;52.388;4.928;2023-04-25T04:44:14;6.10;99.90
14172;DHT22;7165;52.388;4.928;2023-04-25T04:46:41;6.10;99.90
14172;DHT22;7165;52.388;4.928;2023-04-25T04:49:09;6.10;99.90
14172;DHT22;7165;52.388;4.928;2023-04-25T04:51:36;6.10;99.90
14172;DHT22;7165;52.388;4.928;2023-04-25T04:54:03;6.10;99.90
14172;DHT22;7165;52.388;4.928;2023-04-25T04:56:29;6.10;99.90
14172;DHT22;7165;52.388;4.928;2023-04-25T04:58:57;6.10;99.90
14172;DHT22;7165;52.388;4.928;2023-04-25T05:01:23;6.10;99.90
14172;DHT22;7165;52.388;4.928;2023-04-25T05:03:51;6.20;99.90
14172;DHT22;7165;52.388;4.928;2023-04-25T05:06:19;6.20;99.90
14172;DHT22;7165;52.388;4.928;2023-04-25T05:08:45;6.20;99.90
14172;DHT22;7165;52.388;4.928;2023-04-25T05:11:12;6.30;99.90
14172;DHT22;7165;52.388;4.928;2023-04-25T05:13:38;6.30;99.90
14172;DHT22;7165;52.388;4.928;2023-04-25T05:16:05;6.30;99.90
14172;DHT22;7165;52.388;4.928;2023-04-25T05:18:32;6.30;99.90
14172;DHT22;7165;52.388;4.928;2023-04-25T05:20:58;6.30;99.90
14172;DHT22;7165;52.388;4.928;2023-04-25T05:23:26;6.30;99.90
14172;DHT22;7165;52.388;4.928;2023-04-25T05:25:55;6.30;99.90
14172;DHT22;7165;52.388;4.928;2023-04-25T05:28:22;6.30;99.90
14172;DHT22;7165;52.388;4.928;2023-04-25T05:30:48;6.30;99.90
14172;DHT22;7165;52.388;4.928;2023-04-25T05:33:15;6.30;99.90
14172;DHT22;7165;52.388;4.928;2023-04-25T05:35:42;6.30;99.90
14172;DHT22;7165;52.388;4.928;2023-04-25T05:38:08;6.30;99.90
14172;DHT22;7165;52.388;4.928;2023-04-25T05:40:36;6.30;99.90
14172;DHT22;7165;52.388;4.928;2023-04-25T05:43:03;6.30;99.90
14172;DHT22;7165;52.388;4.928;2023-04-25T05:45:29;6.30;99.90
14172;DHT22;7165;52.388;4.928;2023-04-25T05:47:56;6.30;99.90
14172;DHT22;7165;52.388;4.928;2023-04-25T05:50:22;6.40;99.90
14172;DHT22;7165;52.388;4.928;2023-04-25T05:52:53;6.50;99.90
14172;DHT22;7165;52.388;4.928;2023-04-25T05:55:19;6.60;99.90
14172;DHT22;7165;52.388;4.928;2023-04-25T05:57:47;6.70;99.90
14172;DHT22;7165;52.388;4.928;2023-04-25T06:00:14;6.80;99.90
14172;DHT22;7165;52.388;4.928;2023-04-25T06:02:41;6.80;99.90
14172;DHT22;7165;52.388;4.928;2023-04-25T06:05:08;6.90;99.90
14172;DHT22;7165;52.388;4.928;2023-04-25T06:07:34;6.90;99.90
14172;DHT22;7165;52.388;4.928;2023-04-25T06:10:01;7.00;99.90
14172;DHT22;7165;52.388;4.928;2023-04-25T06:12:29;7.10;99.90
14172;DHT22;7165;52.388;4.928;2023-04-25T06:14:56;7.10;99.90
14172;DHT22;7165;52.388;4.928;2023-04-25T06:17:23;7.20;99.90
14172;DHT22;7165;52.388;4.928;2023-04-25T06:19:49;7.30;99.90
14172;DHT22;7165;52.388;4.928;2023-04-25T06:22:16;7.40;99.90
14172;DHT22;7165;52.388;4.928;2023-04-25T06:24:43;7.50;99.90
14172;DHT22;7165;52.388;4.928;2023-04-25T06:27:09;7.50;99.90
14172;DHT22;7165;52.388;4.928;2023-04-25T06:29:36;7.50;99.90
14172;DHT22;7165;52.388;4.928;2023-04-25T06:32:04;7.50;99.90
14172;DHT22;7165;52.388;4.928;2023-04-25T06:34:30;7.50;99.90
14172;DHT22;7165;52.388;4.928;2023-04-25T06:36:57;7.60;99.90
14172;DHT22;7165;52.388;4.928;2023-04-25T06:39:23;7.60;99.90
14172;DHT22;7165;52.388;4.928;2023-04-25T06:41:50;7.70;99.90
14172;DHT22;7165;52.388;4.928;2023-04-25T06:44:17;7.70;99.90
14172;DHT22;7165;52.388;4.928;2023-04-25T06:46:43;7.80;99.90
14172;DHT22;7165;52.388;4.928;2023-04-25T06:49:11;7.90;99.90
14172;DHT22;7165;52.388;4.928;2023-04-25T06:51:38;8.00;99.90
14172;DHT22;7165;52.388;4.928;2023-04-25T06:54:05;8.10;99.90
14172;DHT22;7165;52.388;4.928;2023-04-25T06:56:32;8.10;99.90
14172;DHT22;7165;52.388;4.928;2023-04-25T06:58:58;8.20;99.90
14172;DHT22;7165;52.388;4.928;2023-04-25T07:01:26;8.10;99.90
14172;DHT22;7165;52.388;4.928;2023-04-25T07:03:52;8.10;99.90
14172;DHT22;7165;52.388;4.928;2023-04-25T07:06:20;8.10;99.90
14172;DHT22;7165;52.388;4.928;2023-04-25T07:08:46;8.30;99.90
14172;DHT22;7165;52.388;4.928;2023-04-25T07:11:13;8.40;99.90
14172;DHT22;7165;52.388;4.928;2023-04-25T07:13:39;8.70;99.90
14172;DHT22;7165;52.388;4.928;2023-04-25T07:16:06;8.80;99.90
14172;DHT22;7165;52.388;4.928;2023-04-25T07:18:33;8.90;99.90
14172;DHT22;7165;52.388;4.928;2023-04-25T07:20:59;9.00;99.90
14172;DHT22;7165;52.388;4.928;2023-04-25T07:23:27;8.90;99.90
14172;DHT22;7165;52.388;4.928;2023-04-25T07:25:53;8.80;99.90
14172;DHT22;7165;52.388;4.928;2023-04-25T07:28:21;8.70;99.90
14172;DHT22;7165;52.388;4.928;2023-04-25T07:30:47;8.60;99.90
14172;DHT22;7165;52.388;4.928;2023-04-25T07:33:14;8.50;99.90
14172;DHT22;7165;52.388;4.928;2023-04-25T07:35:40;8.40;99.90
14172;DHT22;7165;52.388;4.928;2023-04-25T07:38:07;8.50;99.90
14172;DHT22;7165;52.388;4.928;2023-04-25T07:40:36;8.70;99.90
14172;DHT22;7165;52.388;4.928;2023-04-25T07:43:03;9.00;99.90
14172;DHT22;7165;52.388;4.928;2023-04-25T07:45:29;9.30;99.90
14172;DHT22;7165;52.388;4.928;2023-04-25T07:47:56;9.40;99.90
14172;DHT22;7165;52.388;4.928;2023-04-25T07:50:23;9.10;99.90
14172;DHT22;7165;52.388;4.928;2023-04-25T07:52:49;8.80;99.90
14172;DHT22;7165;52.388;4.928;2023-04-25T07:55:16;8.60;99.90
14172;DHT22;7165;52.388;4.928;2023-04-25T07:57:43;8.40;99.90
14172;DHT22;7165;52.388;4.928;2023-04-25T08:00:11;8.30;99.90
14172;DHT22;7165;52.388;4.928;2023-04-25T08:02:38;8.30;99.90
14172;DHT22;7165;52.388;4.928;2023-04-25T08:05:04;8.40;99.90
14172;DHT22;7165;52.388;4.928;2023-04-25T08:07:33;8.60;99.90
14172;DHT22;7165;52.388;4.928;2023-04-25T08:09:59;8.80;99.90
14172;DHT22;7165;52.388;4.928;2023-04-25T08:12:26;8.90;99.90
14172;DHT22;7165;52.388;4.928;2023-04-25T08:14:54;9.10;99.90
14172;DHT22;7165;52.388;4.928;2023-04-25T08:17:20;9.40;99.90
14172;DHT22;7165;52.388;4.928;2023-04-25T08:19:47;9.70;99.90
14172;DHT22;7165;52.388;4.928;2023-04-25T08:22:13;10.00;99.90
14172;DHT22;7165;52.388;4.928;2023-04-25T08:24:40;10.10;99.90
14172;DHT22;7165;52.388;4.928;2023-04-25T08:27:07;10.30;99.90
14172;DHT22;7165;52.388;4.928;2023-04-25T08:29:34;10.50;99.90
14172;DHT22;7165;52.388;4.928;2023-04-25T08:32:02;10.50;99.90
14172;DHT22;7165;52.388;4.928;2023-04-25T08:34:28;10.50;99.90
14172;DHT22;7165;52.388;4.928;2023-04-25T08:36:55;10.50;99.90
14172;DHT22;7165;52.388;4.928;2023-04-25T08:39:21;10.30;99.90
14172;DHT22;7165;52.388;4.928;2023-04-25T08:41:48;10.10;99.90
14172;DHT22;7165;52.388;4.928;2023-04-25T08:44:14;9.80;99.90
14172;DHT22;7165;52.388;4.928;2023-04-25T08:46:42;9.60;99.90
14172;DHT22;7165;52.388;4.928;2023-04-25T08:49:15;9.60;99.90
14172;DHT22;7165;52.388;4.928;2023-04-25T08:51:44;9.60;99.90
14172;DHT22;7165;52.388;4.928;2023-04-25T08:54:12;9.70;99.90
14172;DHT22;7165;52.388;4.928;2023-04-25T08:56:38;9.80;99.90
14172;DHT22;7165;52.388;4.928;2023-04-25T08:59:06;9.80;99.90
14172;DHT22;7165;52.388;4.928;2023-04-25T09:01:34;9.80;99.90
14172;DHT22;7165;52.388;4.928;2023-04-25T09:04:01;10.00;99.90
14172;DHT22;7165;52.388;4.928;2023-04-25T09:06:28;10.10;99.90
14172;DHT22;7165;52.388;4.928;2023-04-25T09:08:59;10.10;99.90
14172;DHT22;7165;52.388;4.928;2023-04-25T09:11:27;10.20;99.90
14172;DHT22;7165;52.388;4.928;2023-04-25T09:16:35;10.20;99.90
14172;DHT22;7165;52.388;4.928;2023-04-25T09:19:01;10.20;99.90
14172;DHT22;7165;52.388;4.928;2023-04-25T09:21:29;10.20;99.90
14172;DHT22;7165;52.388;4.928;2023-04-25T09:23:56;10.10;99.90
14172;DHT22;7165;52.388;4.928;2023-04-25T09:26:24;10.10;99.90
14172;DHT22;7165;52.388;4.928;2023-04-25T09:28:57;10.00;99.90
14172;DHT22;7165;52.388;4.928;2023-04-25T09:31:31;10.10;99.90
14172;DHT22;7165;52.388;4.928;2023-04-25T09:33:59;10.40;99.90
14172;DHT22;7165;52.388;4.928;2023-04-25T09:36:27;10.70;99.90
14172;DHT22;7165;52.388;4.928;2023-04-25T09:38:55;11.00;99.90
14172;DHT22;7165;52.388;4.928;2023-04-25T09:41:22;11.00;99.90
14172;DHT22;7165;52.388;4.928;2023-04-25T09:43:48;11.20;99.90
14172;DHT22;7165;52.388;4.928;2023-04-25T09:46:15;11.30;99.90
14172;DHT22;7165;52.388;4.928;2023-04-25T09:48:47;11.50;99.90
14172;DHT22;7165;52.388;4.928;2023-04-25T09:51:14;11.70;99.90
14172;DHT22;7165;52.388;4.928;2023-04-25T09:53:41;11.80;99.90
14172;DHT22;7165;52.388;4.928;2023-04-25T09:56:09;11.70;99.90
14172;DHT22;7165;52.388;4.928;2023-04-25T09:58:38;11.80;99.90
14172;DHT22;7165;52.388;4.928;2023-04-25T10:01:05;12.10;99.90
14172;DHT22;7165;52.388;4.928;2023-04-25T10:03:33;12.10;99.90
14172;DHT22;7165;52.388;4.928;2023-04-25T10:06:00;11.70;99.90
14172;DHT22;7165;52.388;4.928;2023-04-25T10:08:29;11.20;99.90
14172;DHT22;7165;52.388;4.928;2023-04-25T10:10:57;10.50;99.90
14172;DHT22;7165;52.388;4.928;2023-04-25T10:13:25;9.70;99.90
14172;DHT22;7165;52.388;4.928;2023-04-25T10:15:53;9.10;99.90
14172;DHT22;7165;52.388;4.928;2023-04-25T10:18:20;8.80;99.90
14172;DHT22;7165;52.388;4.928;2023-04-25T10:20:46;8.60;99.90
14172;DHT22;7165;52.388;4.928;2023-04-25T10:23:13;8.60;99.90
14172;DHT22;7165;52.388;4.928;2023-04-25T10:25:42;8.70;99.90
14172;DHT22;7165;52.388;4.928;2023-04-25T10:28:09;8.80;99.90
14172;DHT22;7165;52.388;4.928;2023-04-25T10:30:37;8.90;99.90
14172;DHT22;7165;52.388;4.928;2023-04-25T10:33:04;9.30;99.90
14172;DHT22;7165;52.388;4.928;2023-04-25T10:35:42;9.90;99.90
14172;DHT22;7165;52.388;4.928;2023-04-25T10:38:11;10.40;99.90
14172;DHT22;7165;52.388;4.928;2023-04-25T10:40:40;10.80;99.90
14172;DHT22;7165;52.388;4.928;2023-04-25T10:45:52;11.00;99.90
14172;DHT22;7165;52.388;4.928;2023-04-25T10:48:24;11.20;99.90
14172;DHT22;7165;52.388;4.928;2023-04-25T10:50:53;11.60;99.90
14172;DHT22;7165;52.388;4.928;2023-04-25T10:53:32;11.50;99.90
14172;DHT22;7165;52.388;4.928;2023-04-25T10:55:59;10.60;99.90
14172;DHT22;7165;52.388;4.928;2023-04-25T10:58:26;9.60;99.90
14172;DHT22;7165;52.388;4.928;2023-04-25T11:00:53;9.00;99.90
14172;DHT22;7165;52.388;4.928;2023-04-25T11:03:21;8.70;99.90
14172;DHT22;7165;52.388;4.928;2023-04-25T11:05:49;8.70;99.90
14172;DHT22;7165;52.388;4.928;2023-04-25T11:08:16;8.80;99.90
14172;DHT22;7165;52.388;4.928;2023-04-25T11:10:50;8.90;99.90
14172;DHT22;7165;52.388;4.928;2023-04-25T11:13:16;9.20;99.90
14172;DHT22;7165;52.388;4.928;2023-04-25T11:15:43;9.70;99.90
14172;DHT22;7165;52.388;4.928;2023-04-25T11:18:15;10.30;99.90
14172;DHT22;7165;52.388;4.928;2023-04-25T11:20:42;10.60;99.90
14172;DHT22;7165;52.388;4.928;2023-04-25T11:23:09;11.00;99.90
14172;DHT22;7165;52.388;4.928;2023-04-25T11:25:36;11.40;99.90
14172;DHT22;7165;52.388;4.928;2023-04-25T11:28:03;11.70;99.90
14172;DHT22;7165;52.388;4.928;2023-04-25T11:30:31;11.70;99.90
14172;DHT22;7165;52.388;4.928;2023-04-25T11:32:58;11.70;99.90
14172;DHT22;7165;52.388;4.928;2023-04-25T11:35:26;12.00;99.90
14172;DHT22;7165;52.388;4.928;2023-04-25T11:37:52;11.70;99.90
14172;DHT22;7165;52.388;4.928;2023-04-25T11:40:19;11.40;99.90
14172;DHT22;7165;52.388;4.928;2023-04-25T11:42:46;11.50;99.90
14172;DHT22;7165;52.388;4.928;2023-04-25T11:45:13;11.90;99.90
14172;DHT22;7165;52.388;4.928;2023-04-25T11:47:40;12.30;99.90
14172;DHT22;7165;52.388;4.928;2023-04-25T11:50:07;12.60;99.90
14172;DHT22;7165;52.388;4.928;2023-04-25T11:52:42;12.60;99.90
14172;DHT22;7165;52.388;4.928;2023-04-25T11:55:09;12.90;99.90
14172;DHT22;7165;52.388;4.928;2023-04-25T11:57:37;12.40;99.90
14172;DHT22;7165;52.388;4.928;2023-04-25T12:00:10;11.60;99.90
14172;DHT22;7165;52.388;4.928;2023-04-25T12:02:40;11.10;99.90
14172;DHT22;7165;52.388;4.928;2023-04-25T12:05:07;11.30;99.90
14172;DHT22;7165;52.388;4.928;2023-04-25T12:07:34;11.80;99.90
14172;DHT22;7165;52.388;4.928;2023-04-25T12:10:05;12.20;99.90
14172;DHT22;7165;52.388;4.928;2023-04-25T12:12:32;12.40;99.90
14172;DHT22;7165;52.388;4.928;2023-04-25T12:15:07;12.60;99.90
14172;DHT22;7165;52.388;4.928;2023-04-25T12:17:34;12.80;99.90
14172;DHT22;7165;52.388;4.928;2023-04-25T12:20:05;13.00;99.90
14172;DHT22;7165;52.388;4.928;2023-04-25T12:22:32;12.90;99.90
14172;DHT22;7165;52.388;4.928;2023-04-25T12:24:59;12.70;99.90
14172;DHT22;7165;52.388;4.928;2023-04-25T12:27:27;13.00;99.90
14172;DHT22;7165;52.388;4.928;2023-04-25T12:29:54;13.40;99.90
14172;DHT22;7165;52.388;4.928;2023-04-25T12:32:20;13.40;99.90
14172;DHT22;7165;52.388;4.928;2023-04-25T12:34:47;12.90;99.90
14172;DHT22;7165;52.388;4.928;2023-04-25T12:37:14;12.80;99.90
14172;DHT22;7165;52.388;4.928;2023-04-25T12:39:40;12.90;99.90
14172;DHT22;7165;52.388;4.928;2023-04-25T12:42:07;13.20;99.90
14172;DHT22;7165;52.388;4.928;2023-04-25T12:44:38;13.40;99.90
14172;DHT22;7165;52.388;4.928;2023-04-25T12:47:05;13.80;99.90
14172;DHT22;7165;52.388;4.928;2023-04-25T12:49:31;13.60;99.90
14172;DHT22;7165;52.388;4.928;2023-04-25T12:51:58;13.40;99.90
14172;DHT22;7165;52.388;4.928;2023-04-25T12:54:25;13.10;99.90
14172;DHT22;7165;52.388;4.928;2023-04-25T12:56:51;12.80;99.90
14172;DHT22;7165;52.388;4.928;2023-04-25T12:59:18;12.50;99.90
14172;DHT22;7165;52.388;4.928;2023-04-25T13:01:47;12.70;99.90
14172;DHT22;7165;52.388;4.928;2023-04-25T13:04:13;12.80;99.90
14172;DHT22;7165;52.388;4.928;2023-04-25T13:06:40;12.40;99.90
14172;DHT22;7165;52.388;4.928;2023-04-25T13:09:06;12.00;99.90
14172;DHT22;7165;52.388;4.928;2023-04-25T13:11:33;11.80;99.90
14172;DHT22;7165;52.388;4.928;2023-04-25T13:14:00;12.00;99.90
14172;DHT22;7165;52.388;4.928;2023-04-25T13:16:27;12.20;99.90
14172;DHT22;7165;52.388;4.928;2023-04-25T13:18:55;12.30;99.90
14172;DHT22;7165;52.388;4.928;2023-04-25T13:21:22;12.10;99.90
14172;DHT22;7165;52.388;4.928;2023-04-25T13:23:48;12.00;99.90
14172;DHT22;7165;52.388;4.928;2023-04-25T13:26:15;11.90;99.90
14172;DHT22;7165;52.388;4.928;2023-04-25T13:28:41;11.80;99.90
14172;DHT22;7165;52.388;4.928;2023-04-25T13:31:08;11.50;99.90
14172;DHT22;7165;52.388;4.928;2023-04-25T13:33:34;11.50;99.90
14172;DHT22;7165;52.388;4.928;2023-04-25T13:36:02;11.80;99.90
14172;DHT22;7165;52.388;4.928;2023-04-25T13:38:29;12.50;99.90
14172;DHT22;7165;52.388;4.928;2023-04-25T13:40:56;13.20;99.90
14172;DHT22;7165;52.388;4.928;2023-04-25T13:43:22;13.50;99.90
14172;DHT22;7165;52.388;4.928;2023-04-25T13:45:49;13.50;99.90
14172;DHT22;7165;52.388;4.928;2023-04-25T13:48:15;13.60;99.90
14172;DHT22;7165;52.388;4.928;2023-04-25T13:50:42;13.40;99.90
14172;DHT22;7165;52.388;4.928;2023-04-25T13:53:10;13.10;99.90
14172;DHT22;7165;52.388;4.928;2023-04-25T13:55:37;12.60;99.90
14172;DHT22;7165;52.388;4.928;2023-04-25T13:58:04;12.60;99.90
14172;DHT22;7165;52.388;4.928;2023-04-25T14:00:33;12.70;99.90
14172;DHT22;7165;52.388;4.928;2023-04-25T14:03:00;12.80;99.90
14172;DHT22;7165;52.388;4.928;2023-04-25T14:05:30;13.10;99.90
14172;DHT22;7165;52.388;4.928;2023-04-25T14:07:56;13.30;99.90
14172;DHT22;7165;52.388;4.928;2023-04-25T14:10:24;13.20;99.90
14172;DHT22;7165;52.388;4.928;2023-04-25T14:12:50;12.80;99.90
14172;DHT22;7165;52.388;4.928;2023-04-25T14:15:17;12.10;99.90
14172;DHT22;7165;52.388;4.928;2023-04-25T14:17:43;11.60;99.90
14172;DHT22;7165;52.388;4.928;2023-04-25T14:20:11;11.10;99.90
14172;DHT22;7165;52.388;4.928;2023-04-25T14:22:38;10.60;99.90
14172;DHT22;7165;52.388;4.928;2023-04-25T14:25:08;10.30;99.90
14172;DHT22;7165;52.388;4.928;2023-04-25T14:27:36;10.30;99.90
14172;DHT22;7165;52.388;4.928;2023-04-25T14:30:04;10.80;99.90
14172;DHT22;7165;52.388;4.928;2023-04-25T14:32:31;11.50;99.90
14172;DHT22;7165;52.388;4.928;2023-04-25T14:34:58;12.00;99.90
14172;DHT22;7165;52.388;4.928;2023-04-25T14:37:25;12.60;99.90
14172;DHT22;7165;52.388;4.928;2023-04-25T14:39:51;13.10;99.90
14172;DHT22;7165;52.388;4.928;2023-04-25T14:42:18;13.10;99.90
14172;DHT22;7165;52.388;4.928;2023-04-25T14:44:46;12.70;99.90
14172;DHT22;7165;52.388;4.928;2023-04-25T14:47:12;12.90;99.90
14172;DHT22;7165;52.388;4.928;2023-04-25T14:49:39;13.30;99.90
14172;DHT22;7165;52.388;4.928;2023-04-25T14:52:05;13.50;99.90
14172;DHT22;7165;52.388;4.928;2023-04-25T14:54:32;13.20;99.90
14172;DHT22;7165;52.388;4.928;2023-04-25T14:56:58;12.90;99.90
14172;DHT22;7165;52.388;4.928;2023-04-25T14:59:25;13.00;99.90
14172;DHT22;7165;52.388;4.928;2023-04-25T15:01:54;12.50;99.90
14172;DHT22;7165;52.388;4.928;2023-04-25T15:04:21;12.10;99.90
14172;DHT22;7165;52.388;4.928;2023-04-25T15:06:47;11.90;99.90
14172;DHT22;7165;52.388;4.928;2023-04-25T15:09:14;11.50;99.90
14172;DHT22;7165;52.388;4.928;2023-04-25T15:11:41;11.40;99.90
14172;DHT22;7165;52.388;4.928;2023-04-25T15:14:08;11.50;99.90
14172;DHT22;7165;52.388;4.928;2023-04-25T15:16:34;11.70;99.90
14172;DHT22;7165;52.388;4.928;2023-04-25T15:19:02;11.80;99.90
14172;DHT22;7165;52.388;4.928;2023-04-25T15:21:29;12.20;99.90
14172;DHT22;7165;52.388;4.928;2023-04-25T15:23:56;12.20;99.90
14172;DHT22;7165;52.388;4.928;2023-04-25T15:26:23;12.30;99.90
14172;DHT22;7165;52.388;4.928;2023-04-25T15:28:50;12.10;99.90
14172;DHT22;7165;52.388;4.928;2023-04-25T15:31:17;11.90;99.90
14172;DHT22;7165;52.388;4.928;2023-04-25T15:33:44;11.90;99.90
14172;DHT22;7165;52.388;4.928;2023-04-25T15:36:11;11.60;99.90
14172;DHT22;7165;52.388;4.928;2023-04-25T15:38:38;11.30;99.90
14172;DHT22;7165;52.388;4.928;2023-04-25T15:41:05;11.20;99.90
14172;DHT22;7165;52.388;4.928;2023-04-25T15:43:32;11.20;99.90
14172;DHT22;7165;52.388;4.928;2023-04-25T15:46:00;11.50;99.90
14172;DHT22;7165;52.388;4.928;2023-04-25T15:48:27;11.30;99.90
14172;DHT22;7165;52.388;4.928;2023-04-25T15:50:53;11.10;99.90
14172;DHT22;7165;52.388;4.928;2023-04-25T15:53:21;11.00;99.90
14172;DHT22;7165;52.388;4.928;2023-04-25T15:55:48;11.30;99.90
14172;DHT22;7165;52.388;4.928;2023-04-25T15:58:14;11.40;99.90
14172;DHT22;7165;52.388;4.928;2023-04-25T16:00:41;11.80;99.90